sensor_id;sensor_type;location;lat;lon;timestamp;temperature;humidity
18289;DHT22;9270;49.774;8.472;2023-05-07T00:01:36;18.00;99.90
18289;DHT22;9270;49.774;8.472;2023-05-07T00:04:03;18.00;99.90
18289;DHT22;9270;49.774;8.472;2023-05-07T00:06:31;18.00;99.90
18289;DHT22;9270;49.774;8.472;2023-05-07T00:08:58;18.00;99.90
18289;DHT22;9270;49.774;8.472;2023-05-07T00:11:26;17.90;99.90
18289;DHT22;9270;49.774;8.472;2023-05-07T00:13:54;18.00;99.90
18289;DHT22;9270;49.774;8.472;2023-05-07T00:16:21;18.00;99.90
18289;DHT22;9270;49.774;8.472;2023-05-07T00:18:48;18.00;99.90
18289;DHT22;9270;49.774;8.472;2023-05-07T00:21:15;17.90;99.90
18289;DHT22;9270;49.774;8.472;2023-05-07T00:23:41;17.90;99.90
18289;DHT22;9270;49.774;8.472;2023-05-07T00:26:08;17.90;99.90
18289;DHT22;9270;49.774;8.472;2023-05-07T00:28:35;17.90;99.90
18289;DHT22;9270;49.774;8.472;2023-05-07T00:31:03;17.90;99.90
18289;DHT22;9270;49.774;8.472;2023-05-07T00:33:29;17.90;99.90
18289;DHT22;9270;49.774;8.472;2023-05-07T00:35:56;17.90;99.90
18289;DHT22;9270;49.774;8.472;2023-05-07T00:38:23;17.90;99.90
18289;DHT22;9270;49.774;8.472;2023-05-07T00:40:50;17.90;99.90
18289;DHT22;9270;49.774;8.472;2023-05-07T00:43:17;17.90;99.90
18289;DHT22;9270;49.774;8.472;2023-05-07T00:45:43;17.80;99.90
18289;DHT22;9270;49.774;8.472;2023-05-07T00:48:11;17.80;99.90
18289;DHT22;9270;49.774;8.472;2023-05-07T00:50:39;17.80;99.90
18289;DHT22;9270;49.774;8.472;2023-05-07T00:53:06;17.70;99.90
18289;DHT22;9270;49.774;8.472;2023-05-07T00:55:33;17.70;99.90
18289;DHT22;9270;49.774;8.472;2023-05-07T00:58:00;17.70;99.90
18289;DHT22;9270;49.774;8.472;2023-05-07T01:00:26;17.70;99.90
18289;DHT22;9270;49.774;8.472;2023-05-07T01:02:53;17.60;99.90
18289;DHT22;9270;49.774;8.472;2023-05-07T01:05:23;17.60;99.90
18289;DHT22;9270;49.774;8.472;2023-05-07T01:07:51;17.60;99.90
18289;DHT22;9270;49.774;8.472;2023-05-07T01:10:20;17.50;99.90
18289;DHT22;9270;49.774;8.472;2023-05-07T01:12:47;17.40;99.90
18289;DHT22;9270;49.774;8.472;2023-05-07T01:15:15;17.40;99.90
18289;DHT22;9270;49.774;8.472;2023-05-07T01:17:42;17.40;99.90
18289;DHT22;9270;49.774;8.472;2023-05-07T01:20:10;17.30;99.90
18289;DHT22;9270;49.774;8.472;2023-05-07T01:22:38;17.30;99.90
18289;DHT22;9270;49.774;8.472;2023-05-07T01:25:07;17.30;99.90
18289;DHT22;9270;49.774;8.472;2023-05-07T01:27:34;17.30;99.90
18289;DHT22;9270;49.774;8.472;2023-05-07T01:30:01;17.30;99.90
18289;DHT22;9270;49.774;8.472;2023-05-07T01:32:32;17.30;99.90
18289;DHT22;9270;49.774;8.472;2023-05-07T01:35:01;17.20;99.90
18289;DHT22;9270;49.774;8.472;2023-05-07T01:37:29;17.20;99.90
18289;DHT22;9270;49.774;8.472;2023-05-07T01:39:58;17.10;99.90
18289;DHT22;9270;49.774;8.472;2023-05-07T01:42:25;17.10;99.90
18289;DHT22;9270;49.774;8.472;2023-05-07T01:44:51;17.10;99.90
18289;DHT22;9270;49.774;8.472;2023-05-07T01:47:19;17.10;99.90
18289;DHT22;9270;49.774;8.472;2023-05-07T01:49:47;17.10;99.90
18289;DHT22;9270;49.774;8.472;2023-05-07T01:52:13;17.00;99.90
18289;DHT22;9270;49.774;8.472;2023-05-07T01:54:40;17.10;99.90
18289;DHT22;9270;49.774;8.472;2023-05-07T01:57:09;17.10;99.90
18289;DHT22;9270;49.774;8.472;2023-05-07T01:59:36;17.10;99.90
18289;DHT22;9270;49.774;8.472;2023-05-07T02:02:02;17.00;99.90
18289;DHT22;9270;49.774;8.472;2023-05-07T02:04:29;17.00;99.90
18289;DHT22;9270;49.774;8.472;2023-05-07T02:06:56;16.90;99.90
18289;DHT22;9270;49.774;8.472;2023-05-07T02:09:23;16.90;99.90
18289;DHT22;9270;49.774;8.472;2023-05-07T02:11:49;16.90;99.90
18289;DHT22;9270;49.774;8.472;2023-05-07T02:14:17;16.90;99.90
18289;DHT22;9270;49.774;8.472;2023-05-07T02:16:45;16.90;99.90
18289;DHT22;9270;49.774;8.472;2023-05-07T02:19:12;16.90;99.90
18289;DHT22;9270;49.774;8.472;2023-05-07T02:21:39;16.90;99.90
18289;DHT22;9270;49.774;8.472;2023-05-07T02:24:06;16.90;99.90
18289;DHT22;9270;49.774;8.472;2023-05-07T02:26:32;16.80;99.90
18289;DHT22;9270;49.774;8.472;2023-05-07T02:28:59;16.80;99.90
18289;DHT22;9270;49.774;8.472;2023-05-07T02:31:27;16.70;99.90
18289;DHT22;9270;49.774;8.472;2023-05-07T02:33:54;16.70;99.90
18289;DHT22;9270;49.774;8.472;2023-05-07T02:36:21;16.80;99.90
18289;DHT22;9270;49.774;8.472;2023-05-07T02:38:47;16.70;99.90
18289;DHT22;9270;49.774;8.472;2023-05-07T02:41:14;16.70;99.90
18289;DHT22;9270;49.774;8.472;2023-05-07T02:43:41;16.70;99.90
18289;DHT22;9270;49.774;8.472;2023-05-07T02:46:08;16.70;99.90
18289;DHT22;9270;49.774;8.472;2023-05-07T02:48:37;16.70;99.90
18289;DHT22;9270;49.774;8.472;2023-05-07T02:51:04;16.70;99.90
18289;DHT22;9270;49.774;8.472;2023-05-07T02:53:31;16.60;99.90
18289;DHT22;9270;49.774;8.472;2023-05-07T02:55:59;16.60;99.90
18289;DHT22;9270;49.774;8.472;2023-05-07T02:58:26;16.70;99.90
18289;DHT22;9270;49.774;8.472;2023-05-07T03:00:54;16.70;99.90
18289;DHT22;9270;49.774;8.472;2023-05-07T03:03:21;16.70;99.90
18289;DHT22;9270;49.774;8.472;2023-05-07T03:05:49;16.70;99.90
18289;DHT22;9270;49.774;8.472;2023-05-07T03:08:16;16.60;99.90
18289;DHT22;9270;49.774;8.472;2023-05-07T03:10:42;16.60;99.90
18289;DHT22;9270;49.774;8.472;2023-05-07T03:13:09;16.50;99.90
18289;DHT22;9270;49.774;8.472;2023-05-07T03:15:36;16.60;99.90
18289;DHT22;9270;49.774;8.472;2023-05-07T03:18:03;16.60;99.90
18289;DHT22;9270;49.774;8.472;2023-05-07T03:20:29;16.60;99.90
18289;DHT22;9270;49.774;8.472;2023-05-07T03:22:58;16.60;99.90
18289;DHT22;9270;49.774;8.472;2023-05-07T03:25:24;16.60;99.90
18289;DHT22;9270;49.774;8.472;2023-05-07T03:27:51;16.60;99.90
18289;DHT22;9270;49.774;8.472;2023-05-07T03:30:18;16.60;99.90
18289;DHT22;9270;49.774;8.472;2023-05-07T03:32:45;16.70;99.90
18289;DHT22;9270;49.774;8.472;2023-05-07T03:35:12;16.60;99.90
18289;DHT22;9270;49.774;8.472;2023-05-07T03:37:39;16.60;99.90
18289;DHT22;9270;49.774;8.472;2023-05-07T03:40:08;16.60;99.90
18289;DHT22;9270;49.774;8.472;2023-05-07T03:42:35;16.60;99.90
18289;DHT22;9270;49.774;8.472;2023-05-07T03:45:03;16.60;99.90
18289;DHT22;9270;49.774;8.472;2023-05-07T03:47:29;16.60;99.90
18289;DHT22;9270;49.774;8.472;2023-05-07T03:49:56;16.60;99.90
18289;DHT22;9270;49.774;8.472;2023-05-07T03:52:23;16.60;99.90
18289;DHT22;9270;49.774;8.472;2023-05-07T03:54:52;16.60;99.90
18289;DHT22;9270;49.774;8.472;2023-05-07T03:57:20;16.60;99.90
18289;DHT22;9270;49.774;8.472;2023-05-07T03:59:47;16.60;99.90
18289;DHT22;9270;49.774;8.472;2023-05-07T04:02:14;16.60;99.90
18289;DHT22;9270;49.774;8.472;2023-05-07T04:04:41;16.60;99.90
18289;DHT22;9270;49.774;8.472;2023-05-07T04:07:07;16.50;99.90
18289;DHT22;9270;49.774;8.472;2023-05-07T04:09:35;16.60;99.90
18289;DHT22;9270;49.774;8.472;2023-05-07T04:12:02;16.60;99.90
18289;DHT22;9270;49.774;8.472;2023-05-07T04:14:30;16.60;99.90
18289;DHT22;9270;49.774;8.472;2023-05-07T04:16:57;16.60;99.90
18289;DHT22;9270;49.774;8.472;2023-05-07T04:19:24;16.70;99.90
18289;DHT22;9270;49.774;8.472;2023-05-07T04:21:51;16.70;99.90
18289;DHT22;9270;49.774;8.472;2023-05-07T04:24:18;16.70;99.90
18289;DHT22;9270;49.774;8.472;2023-05-07T04:26:45;16.70;99.90
18289;DHT22;9270;49.774;8.472;2023-05-07T04:29:12;16.80;99.90
18289;DHT22;9270;49.774;8.472;2023-05-07T04:31:40;16.80;99.90
18289;DHT22;9270;49.774;8.472;2023-05-07T04:34:09;16.80;99.90
18289;DHT22;9270;49.774;8.472;2023-05-07T04:36:37;16.90;99.90
18289;DHT22;9270;49.774;8.472;2023-05-07T04:39:04;16.90;99.90
18289;DHT22;9270;49.774;8.472;2023-05-07T04:41:31;16.90;99.90
18289;DHT22;9270;49.774;8.472;2023-05-07T04:43:58;16.90;99.90
18289;DHT22;9270;49.774;8.472;2023-05-07T04:46:25;17.00;99.90
18289;DHT22;9270;49.774;8.472;2023-05-07T04:48:53;17.00;99.90
18289;DHT22;9270;49.774;8.472;2023-05-07T04:51:20;17.00;99.90
18289;DHT22;9270;49.774;8.472;2023-05-07T04:53:47;17.00;99.90
18289;DHT22;9270;49.774;8.472;2023-05-07T04:56:13;17.00;99.90
18289;DHT22;9270;49.774;8.472;2023-05-07T04:58:40;17.10;99.90
18289;DHT22;9270;49.774;8.472;2023-05-07T05:01:07;17.00;99.90
18289;DHT22;9270;49.774;8.472;2023-05-07T05:03:34;17.10;99.90
18289;DHT22;9270;49.774;8.472;2023-05-07T05:06:02;17.20;99.90
18289;DHT22;9270;49.774;8.472;2023-05-07T05:08:29;17.20;99.90
18289;DHT22;9270;49.774;8.472;2023-05-07T05:10:56;17.20;99.90
18289;DHT22;9270;49.774;8.472;2023-05-07T05:13:23;17.30;99.90
18289;DHT22;9270;49.774;8.472;2023-05-07T05:15:50;17.40;99.90
18289;DHT22;9270;49.774;8.472;2023-05-07T05:18:17;17.50;99.90
18289;DHT22;9270;49.774;8.472;2023-05-07T05:20:43;17.50;99.90
18289;DHT22;9270;49.774;8.472;2023-05-07T05:23:11;17.60;99.90
18289;DHT22;9270;49.774;8.472;2023-05-07T05:25:38;17.60;99.90
18289;DHT22;9270;49.774;8.472;2023-05-07T05:28:05;17.70;99.90
18289;DHT22;9270;49.774;8.472;2023-05-07T05:30:32;17.70;99.90
18289;DHT22;9270;49.774;8.472;2023-05-07T05:32:59;17.70;99.90
18289;DHT22;9270;49.774;8.472;2023-05-07T05:35:26;17.80;99.90
18289;DHT22;9270;49.774;8.472;2023-05-07T05:37:52;17.80;99.90
18289;DHT22;9270;49.774;8.472;2023-05-07T05:40:20;17.90;99.90
18289;DHT22;9270;49.774;8.472;2023-05-07T05:42:47;17.90;99.90
18289;DHT22;9270;49.774;8.472;2023-05-07T05:45:14;18.00;99.90
18289;DHT22;9270;49.774;8.472;2023-05-07T05:47:41;18.00;99.90
18289;DHT22;9270;49.774;8.472;2023-05-07T05:50:08;18.00;99.90
18289;DHT22;9270;49.774;8.472;2023-05-07T05:52:35;18.00;99.90
18289;DHT22;9270;49.774;8.472;2023-05-07T05:55:01;18.20;99.90
18289;DHT22;9270;49.774;8.472;2023-05-07T05:57:30;18.20;99.90
18289;DHT22;9270;49.774;8.472;2023-05-07T05:59:57;18.20;99.90
18289;DHT22;9270;49.774;8.472;2023-05-07T06:02:24;18.20;99.90
18289;DHT22;9270;49.774;8.472;2023-05-07T06:04:51;18.20;99.90
18289;DHT22;9270;49.774;8.472;2023-05-07T06:07:17;18.20;99.90
18289;DHT22;9270;49.774;8.472;2023-05-07T06:09:44;18.20;99.90
18289;DHT22;9270;49.774;8.472;2023-05-07T06:12:11;18.20;99.90
18289;DHT22;9270;49.774;8.472;2023-05-07T06:14:39;18.20;99.90
18289;DHT22;9270;49.774;8.472;2023-05-07T06:17:07;18.20;99.90
18289;DHT22;9270;49.774;8.472;2023-05-07T06:19:33;18.20;99.90
18289;DHT22;9270;49.774;8.472;2023-05-07T06:22:00;18.30;99.90
18289;DHT22;9270;49.774;8.472;2023-05-07T06:24:28;18.30;99.90
18289;DHT22;9270;49.774;8.472;2023-05-07T06:26:55;18.30;99.90
18289;DHT22;9270;49.774;8.472;2023-05-07T06:29:23;18.40;99.90
18289;DHT22;9270;49.774;8.472;2023-05-07T06:31:52;18.50;99.90
18289;DHT22;9270;49.774;8.472;2023-05-07T06:34:19;18.60;99.90
18289;DHT22;9270;49.774;8.472;2023-05-07T06:36:46;18.70;99.90
18289;DHT22;9270;49.774;8.472;2023-05-07T06:39:12;18.70;99.90
18289;DHT22;9270;49.774;8.472;2023-05-07T06:41:39;18.80;99.90
18289;DHT22;9270;49.774;8.472;2023-05-07T06:44:06;18.80;99.90
18289;DHT22;9270;49.774;8.472;2023-05-07T06:46:33;18.80;99.90
18289;DHT22;9270;49.774;8.472;2023-05-07T06:49:01;18.80;99.90
18289;DHT22;9270;49.774;8.472;2023-05-07T06:51:28;18.80;99.90
18289;DHT22;9270;49.774;8.472;2023-05-07T06:53:55;18.80;99.90
18289;DHT22;9270;49.774;8.472;2023-05-07T06:56:22;18.80;99.90
18289;DHT22;9270;49.774;8.472;2023-05-07T06:58:49;18.80;99.90
18289;DHT22;9270;49.774;8.472;2023-05-07T07:01:15;18.90;99.90
18289;DHT22;9270;49.774;8.472;2023-05-07T07:03:42;19.00;99.90
18289;DHT22;9270;49.774;8.472;2023-05-07T07:06:10;19.20;99.90
18289;DHT22;9270;49.774;8.472;2023-05-07T07:08:37;19.30;99.90
18289;DHT22;9270;49.774;8.472;2023-05-07T07:11:04;19.60;99.90
18289;DHT22;9270;49.774;8.472;2023-05-07T07:13:31;19.80;99.90
18289;DHT22;9270;49.774;8.472;2023-05-07T07:15:59;19.90;99.90
18289;DHT22;9270;49.774;8.472;2023-05-07T07:18:26;20.10;99.90
18289;DHT22;9270;49.774;8.472;2023-05-07T07:20:53;20.10;99.90
18289;DHT22;9270;49.774;8.472;2023-05-07T07:23:21;20.10;99.90
18289;DHT22;9270;49.774;8.472;2023-05-07T07:25:48;20.10;99.90
18289;DHT22;9270;49.774;8.472;2023-05-07T07:28:14;20.20;99.90
18289;DHT22;9270;49.774;8.472;2023-05-07T07:30:41;20.30;99.90
18289;DHT22;9270;49.774;8.472;2023-05-07T07:33:08;20.40;99.90
18289;DHT22;9270;49.774;8.472;2023-05-07T07:35:35;20.50;99.90
18289;DHT22;9270;49.774;8.472;2023-05-07T07:38:02;20.70;99.90
18289;DHT22;9270;49.774;8.472;2023-05-07T07:40:30;20.70;99.90
18289;DHT22;9270;49.774;8.472;2023-05-07T07:42:57;20.70;99.90
18289;DHT22;9270;49.774;8.472;2023-05-07T07:45:24;20.70;99.90
18289;DHT22;9270;49.774;8.472;2023-05-07T07:47:50;20.60;99.90
18289;DHT22;9270;49.774;8.472;2023-05-07T07:50:17;20.60;99.90
18289;DHT22;9270;49.774;8.472;2023-05-07T07:52:44;20.60;99.90
18289;DHT22;9270;49.774;8.472;2023-05-07T07:55:11;20.60;99.90
18289;DHT22;9270;49.774;8.472;2023-05-07T07:57:39;20.60;99.90
18289;DHT22;9270;49.774;8.472;2023-05-07T08:00:07;20.60;99.90
18289;DHT22;9270;49.774;8.472;2023-05-07T08:02:34;20.60;99.90
18289;DHT22;9270;49.774;8.472;2023-05-07T08:05:01;20.60;99.90
18289;DHT22;9270;49.774;8.472;2023-05-07T08:07:27;20.70;99.90
18289;DHT22;9270;49.774;8.472;2023-05-07T08:09:54;20.70;99.90
18289;DHT22;9270;49.774;8.472;2023-05-07T08:12:21;20.80;99.90
18289;DHT22;9270;49.774;8.472;2023-05-07T08:14:49;20.90;99.90
18289;DHT22;9270;49.774;8.472;2023-05-07T08:17:16;21.00;99.90
18289;DHT22;9270;49.774;8.472;2023-05-07T08:19:43;21.00;99.90
18289;DHT22;9270;49.774;8.472;2023-05-07T08:22:10;21.00;99.90
18289;DHT22;9270;49.774;8.472;2023-05-07T08:24:37;20.90;99.90
18289;DHT22;9270;49.774;8.472;2023-05-07T08:27:04;21.00;99.90
18289;DHT22;9270;49.774;8.472;2023-05-07T08:29:30;21.00;99.90
18289;DHT22;9270;49.774;8.472;2023-05-07T08:31:58;21.00;99.90
18289;DHT22;9270;49.774;8.472;2023-05-07T08:34:25;21.00;99.90
18289;DHT22;9270;49.774;8.472;2023-05-07T08:36:52;21.00;99.90
18289;DHT22;9270;49.774;8.472;2023-05-07T08:39:19;21.10;99.90
18289;DHT22;9270;49.774;8.472;2023-05-07T08:41:46;21.00;99.90
18289;DHT22;9270;49.774;8.472;2023-05-07T08:44:16;21.00;99.90
18289;DHT22;9270;49.774;8.472;2023-05-07T08:46:45;21.10;99.90
18289;DHT22;9270;49.774;8.472;2023-05-07T08:49:14;21.30;99.90
18289;DHT22;9270;49.774;8.472;2023-05-07T08:51:41;21.50;99.90
18289;DHT22;9270;49.774;8.472;2023-05-07T08:54:09;21.70;99.90
18289;DHT22;9270;49.774;8.472;2023-05-07T08:56:37;22.00;99.90
18289;DHT22;9270;49.774;8.472;2023-05-07T08:59:05;22.20;99.90
18289;DHT22;9270;49.774;8.472;2023-05-07T09:01:32;22.20;99.90
18289;DHT22;9270;49.774;8.472;2023-05-07T09:04:01;22.30;99.90
18289;DHT22;9270;49.774;8.472;2023-05-07T09:06:29;22.20;99.90
18289;DHT22;9270;49.774;8.472;2023-05-07T09:08:56;22.30;99.90
18289;DHT22;9270;49.774;8.472;2023-05-07T09:11:24;22.40;99.90
18289;DHT22;9270;49.774;8.472;2023-05-07T09:13:53;22.60;99.90
18289;DHT22;9270;49.774;8.472;2023-05-07T09:16:21;22.60;99.90
18289;DHT22;9270;49.774;8.472;2023-05-07T09:18:51;22.70;99.90
18289;DHT22;9270;49.774;8.472;2023-05-07T09:21:19;22.60;99.90
18289;DHT22;9270;49.774;8.472;2023-05-07T09:23:48;22.50;99.90
18289;DHT22;9270;49.774;8.472;2023-05-07T09:26:15;22.60;99.90
18289;DHT22;9270;49.774;8.472;2023-05-07T09:28:42;22.70;99.90
18289;DHT22;9270;49.774;8.472;2023-05-07T09:31:09;22.90;99.90
18289;DHT22;9270;49.774;8.472;2023-05-07T09:33:36;23.00;99.90
18289;DHT22;9270;49.774;8.472;2023-05-07T09:36:03;23.30;99.90
18289;DHT22;9270;49.774;8.472;2023-05-07T09:38:31;23.30;99.90
18289;DHT22;9270;49.774;8.472;2023-05-07T09:41:06;23.40;99.90
18289;DHT22;9270;49.774;8.472;2023-05-07T09:43:34;23.40;99.90
18289;DHT22;9270;49.774;8.472;2023-05-07T09:46:07;23.50;99.90
18289;DHT22;9270;49.774;8.472;2023-05-07T09:48:38;23.50;99.50
18289;DHT22;9270;49.774;8.472;2023-05-07T09:51:15;23.60;99.90
18289;DHT22;9270;49.774;8.472;2023-05-07T09:53:43;23.40;98.00
18289;DHT22;9270;49.774;8.472;2023-05-07T09:56:14;23.30;98.60
18289;DHT22;9270;49.774;8.472;2023-05-07T09:58:42;23.30;98.60
18289;DHT22;9270;49.774;8.472;2023-05-07T10:01:11;23.20;98.50
18289;DHT22;9270;49.774;8.472;2023-05-07T10:03:40;23.30;99.20
18289;DHT22;9270;49.774;8.472;2023-05-07T10:06:08;23.40;99.20
18289;DHT22;9270;49.774;8.472;2023-05-07T10:08:36;23.60;99.60
18289;DHT22;9270;49.774;8.472;2023-05-07T10:11:03;23.60;98.80
18289;DHT22;9270;49.774;8.472;2023-05-07T10:13:32;23.70;98.30
18289;DHT22;9270;49.774;8.472;2023-05-07T10:16:03;23.70;96.90
18289;DHT22;9270;49.774;8.472;2023-05-07T10:18:30;23.70;97.30
18289;DHT22;9270;49.774;8.472;2023-05-07T10:21:04;24.00;97.40
18289;DHT22;9270;49.774;8.472;2023-05-07T10:23:33;24.20;97.70
18289;DHT22;9270;49.774;8.472;2023-05-07T10:26:03;24.10;97.00
18289;DHT22;9270;49.774;8.472;2023-05-07T10:28:36;24.00;97.20
18289;DHT22;9270;49.774;8.472;2023-05-07T10:31:29;24.00;96.50
18289;DHT22;9270;49.774;8.472;2023-05-07T10:33:58;23.90;96.50
18289;DHT22;9270;49.774;8.472;2023-05-07T10:36:26;24.10;96.80
18289;DHT22;9270;49.774;8.472;2023-05-07T10:38:53;24.30;96.00
18289;DHT22;9270;49.774;8.472;2023-05-07T10:41:21;24.70;95.70
18289;DHT22;9270;49.774;8.472;2023-05-07T10:43:49;25.00;95.40
18289;DHT22;9270;49.774;8.472;2023-05-07T10:46:17;25.40;94.20
18289;DHT22;9270;49.774;8.472;2023-05-07T10:49:06;25.50;93.00
18289;DHT22;9270;49.774;8.472;2023-05-07T10:51:34;25.50;94.10
18289;DHT22;9270;49.774;8.472;2023-05-07T10:54:21;25.60;92.10
18289;DHT22;9270;49.774;8.472;2023-05-07T10:56:48;25.30;91.40
18289;DHT22;9270;49.774;8.472;2023-05-07T10:59:36;25.40;92.40
18289;DHT22;9270;49.774;8.472;2023-05-07T11:02:10;25.60;91.30
18289;DHT22;9270;49.774;8.472;2023-05-07T11:04:39;25.30;90.90
18289;DHT22;9270;49.774;8.472;2023-05-07T11:07:26;25.30;92.10
18289;DHT22;9270;49.774;8.472;2023-05-07T11:10:04;25.60;91.70
18289;DHT22;9270;49.774;8.472;2023-05-07T11:12:56;25.50;90.40
18289;DHT22;9270;49.774;8.472;2023-05-07T11:15:44;25.40;90.80
18289;DHT22;9270;49.774;8.472;2023-05-07T11:18:12;25.50;91.40
18289;DHT22;9270;49.774;8.472;2023-05-07T11:20:56;25.70;90.30
18289;DHT22;9270;49.774;8.472;2023-05-07T11:26:42;25.60;87.00
18289;DHT22;9270;49.774;8.472;2023-05-07T11:29:14;25.90;89.10
18289;DHT22;9270;49.774;8.472;2023-05-07T11:31:43;26.10;89.10
18289;DHT22;9270;49.774;8.472;2023-05-07T11:34:11;26.00;87.30
18289;DHT22;9270;49.774;8.472;2023-05-07T11:36:42;26.00;88.00
18289;DHT22;9270;49.774;8.472;2023-05-07T11:39:31;25.90;86.60
18289;DHT22;9270;49.774;8.472;2023-05-07T11:42:00;26.00;87.00
18289;DHT22;9270;49.774;8.472;2023-05-07T11:44:41;26.00;85.60
18289;DHT22;9270;49.774;8.472;2023-05-07T11:47:10;25.90;85.10
18289;DHT22;9270;49.774;8.472;2023-05-07T11:49:36;25.80;86.80
18289;DHT22;9270;49.774;8.472;2023-05-07T11:52:03;26.10;87.50
18289;DHT22;9270;49.774;8.472;2023-05-07T11:54:35;26.40;86.00
18289;DHT22;9270;49.774;8.472;2023-05-07T11:57:02;26.40;83.50
18289;DHT22;9270;49.774;8.472;2023-05-07T11:59:29;26.30;84.10
18289;DHT22;9270;49.774;8.472;2023-05-07T12:01:56;26.50;82.50
18289;DHT22;9270;49.774;8.472;2023-05-07T12:04:25;26.60;83.40
18289;DHT22;9270;49.774;8.472;2023-05-07T12:06:54;26.40;82.00
18289;DHT22;9270;49.774;8.472;2023-05-07T12:09:21;26.20;83.00
18289;DHT22;9270;49.774;8.472;2023-05-07T12:11:48;26.10;82.20
18289;DHT22;9270;49.774;8.472;2023-05-07T12:14:15;26.00;83.00
18289;DHT22;9270;49.774;8.472;2023-05-07T12:16:42;26.00;82.70
18289;DHT22;9270;49.774;8.472;2023-05-07T12:19:09;26.00;82.20
18289;DHT22;9270;49.774;8.472;2023-05-07T12:21:39;26.00;80.20
18289;DHT22;9270;49.774;8.472;2023-05-07T12:24:07;25.90;79.40
18289;DHT22;9270;49.774;8.472;2023-05-07T12:26:37;26.10;82.30
18289;DHT22;9270;49.774;8.472;2023-05-07T12:29:04;26.30;81.90
18289;DHT22;9270;49.774;8.472;2023-05-07T12:31:31;26.40;82.70
18289;DHT22;9270;49.774;8.472;2023-05-07T12:33:58;26.30;80.80
18289;DHT22;9270;49.774;8.472;2023-05-07T12:36:24;26.30;81.50
18289;DHT22;9270;49.774;8.472;2023-05-07T12:38:54;26.30;81.20
18289;DHT22;9270;49.774;8.472;2023-05-07T12:41:21;26.30;81.10
18289;DHT22;9270;49.774;8.472;2023-05-07T12:43:56;26.10;80.30
18289;DHT22;9270;49.774;8.472;2023-05-07T12:46:22;26.00;79.60
18289;DHT22;9270;49.774;8.472;2023-05-07T12:48:49;26.10;80.50
18289;DHT22;9270;49.774;8.472;2023-05-07T12:51:16;26.10;81.60
18289;DHT22;9270;49.774;8.472;2023-05-07T12:53:43;25.90;81.60
18289;DHT22;9270;49.774;8.472;2023-05-07T12:56:11;25.80;82.40
18289;DHT22;9270;49.774;8.472;2023-05-07T12:58:38;25.80;81.40
18289;DHT22;9270;49.774;8.472;2023-05-07T13:01:06;25.90;81.50
18289;DHT22;9270;49.774;8.472;2023-05-07T13:03:36;26.00;82.30
18289;DHT22;9270;49.774;8.472;2023-05-07T13:06:06;26.10;80.80
18289;DHT22;9270;49.774;8.472;2023-05-07T13:08:36;26.20;78.40
18289;DHT22;9270;49.774;8.472;2023-05-07T13:11:07;26.20;80.90
18289;DHT22;9270;49.774;8.472;2023-05-07T13:13:36;26.20;79.10
18289;DHT22;9270;49.774;8.472;2023-05-07T13:16:05;26.30;79.00
18289;DHT22;9270;49.774;8.472;2023-05-07T13:18:33;26.40;79.40
18289;DHT22;9270;49.774;8.472;2023-05-07T13:21:00;26.40;79.40
18289;DHT22;9270;49.774;8.472;2023-05-07T13:23:28;26.40;76.70
18289;DHT22;9270;49.774;8.472;2023-05-07T13:25:54;26.40;76.00
18289;DHT22;9270;49.774;8.472;2023-05-07T13:28:22;26.40;75.80
18289;DHT22;9270;49.774;8.472;2023-05-07T13:30:50;26.60;77.00
18289;DHT22;9270;49.774;8.472;2023-05-07T13:33:18;26.70;75.20
18289;DHT22;9270;49.774;8.472;2023-05-07T13:35:44;26.80;76.70
18289;DHT22;9270;49.774;8.472;2023-05-07T13:38:11;26.90;76.50
18289;DHT22;9270;49.774;8.472;2023-05-07T13:40:38;26.90;76.60
18289;DHT22;9270;49.774;8.472;2023-05-07T13:43:05;26.90;76.80
18289;DHT22;9270;49.774;8.472;2023-05-07T13:45:33;26.80;76.10
18289;DHT22;9270;49.774;8.472;2023-05-07T13:48:01;26.50;74.70
18289;DHT22;9270;49.774;8.472;2023-05-07T13:50:28;26.40;75.20
18289;DHT22;9270;49.774;8.472;2023-05-07T13:52:55;26.40;76.90
18289;DHT22;9270;49.774;8.472;2023-05-07T13:55:23;26.30;75.20
18289;DHT22;9270;49.774;8.472;2023-05-07T13:57:54;26.30;75.40
18289;DHT22;9270;49.774;8.472;2023-05-07T14:00:22;26.20;74.90
18289;DHT22;9270;49.774;8.472;2023-05-07T14:02:49;26.10;76.10
18289;DHT22;9270;49.774;8.472;2023-05-07T14:05:17;26.00;76.10
18289;DHT22;9270;49.774;8.472;2023-05-07T14:07:44;26.00;75.90
18289;DHT22;9270;49.774;8.472;2023-05-07T14:10:11;26.10;76.00
18289;DHT22;9270;49.774;8.472;2023-05-07T14:12:38;25.90;75.30
18289;DHT22;9270;49.774;8.472;2023-05-07T14:15:06;25.70;75.80
18289;DHT22;9270;49.774;8.472;2023-05-07T14:17:33;25.80;76.20
18289;DHT22;9270;49.774;8.472;2023-05-07T14:20:00;25.80;76.50
18289;DHT22;9270;49.774;8.472;2023-05-07T14:22:28;25.60;76.10
18289;DHT22;9270;49.774;8.472;2023-05-07T14:24:55;25.60;76.20
18289;DHT22;9270;49.774;8.472;2023-05-07T14:27:21;25.60;75.50
18289;DHT22;9270;49.774;8.472;2023-05-07T14:29:48;25.50;75.80
18289;DHT22;9270;49.774;8.472;2023-05-07T14:32:16;25.40;76.30
18289;DHT22;9270;49.774;8.472;2023-05-07T14:34:44;25.40;77.80
18289;DHT22;9270;49.774;8.472;2023-05-07T14:37:11;25.40;77.50
18289;DHT22;9270;49.774;8.472;2023-05-07T14:39:39;25.30;77.40
18289;DHT22;9270;49.774;8.472;2023-05-07T14:42:06;25.30;78.30
18289;DHT22;9270;49.774;8.472;2023-05-07T14:44:33;25.30;77.50
18289;DHT22;9270;49.774;8.472;2023-05-07T14:47:00;25.10;77.50
18289;DHT22;9270;49.774;8.472;2023-05-07T14:49:27;25.00;77.80
18289;DHT22;9270;49.774;8.472;2023-05-07T14:51:56;24.90;78.30
18289;DHT22;9270;49.774;8.472;2023-05-07T14:54:23;24.70;79.00
18289;DHT22;9270;49.774;8.472;2023-05-07T14:56:51;24.70;80.30
18289;DHT22;9270;49.774;8.472;2023-05-07T14:59:18;24.50;78.20
18289;DHT22;9270;49.774;8.472;2023-05-07T15:01:46;24.40;78.60
18289;DHT22;9270;49.774;8.472;2023-05-07T15:04:13;24.30;79.20
18289;DHT22;9270;49.774;8.472;2023-05-07T15:06:40;24.20;79.90
18289;DHT22;9270;49.774;8.472;2023-05-07T15:09:07;24.20;80.30
18289;DHT22;9270;49.774;8.472;2023-05-07T15:11:34;24.10;81.40
18289;DHT22;9270;49.774;8.472;2023-05-07T15:14:02;24.00;81.20
18289;DHT22;9270;49.774;8.472;2023-05-07T15:16:29;23.90;81.50
18289;DHT22;9270;49.774;8.472;2023-05-07T15:18:55;23.80;81.40
18289;DHT22;9270;49.774;8.472;2023-05-07T15:21:22;23.80;81.30
18289;DHT22;9270;49.774;8.472;2023-05-07T15:23:49;23.70;81.20
18289;DHT22;9270;49.774;8.472;2023-05-07T15:26:16;23.60;81.20
18289;DHT22;9270;49.774;8.472;2023-05-07T15:28:42;23.50;81.80
18289;DHT22;9270;49.774;8.472;2023-05-07T15:31:10;23.40;83.50
18289;DHT22;9270;49.774;8.472;2023-05-07T15:33:37;23.20;85.10
18289;DHT22;9270;49.774;8.472;2023-05-07T15:36:05;23.00;86.80
18289;DHT22;9270;49.774;8.472;2023-05-07T15:38:31;22.80;91.60
18289;DHT22;9270;49.774;8.472;2023-05-07T15:40:58;22.10;93.60
18289;DHT22;9270;49.774;8.472;2023-05-07T15:43:25;21.70;95.40
18289;DHT22;9270;49.774;8.472;2023-05-07T15:45:51;21.30;97.60
18289;DHT22;9270;49.774;8.472;2023-05-07T15:48:20;20.80;99.90
18289;DHT22;9270;49.774;8.472;2023-05-07T15:50:46;20.40;99.90
18289;DHT22;9270;49.774;8.472;2023-05-07T15:53:13;20.40;99.90